Walker, Iowa
Current Conditions -  °F | °C
As of 11:35 PM on Monday 26 Jan 2015 (Local Time) from KVTI Reporting Station
Clear Clear  
Wind Chill: -1°   Ceiling: Unl
Heat Index:   Visibility: 10mi
Dew Point:   Wind: 8mph
Humidity: 82%   Direction: 330°NNW
Pressure: 29.93"   Gusts: NA
Location:  42.29°N, 91.78°W
Report Text: KVTI 270535Z AUTO 33007KT 10SM CLR 03/00 A2993 RMK AO2 T00280000
Loading
Personal Weather Stations






























Interactive Weather Map New forecast layout! Learn more

10-Day Weather Forecast

Advertisements
Track Severe Weather on mobile